sensor_id;sensor_type;location;lat;lon;timestamp;P1;durP1;ratioP1;P2;durP2;ratioP2
49910;SDS011;35803;53.096;5.844;2022-08-01T00:00:30;5.15;;;3.20;;
49910;SDS011;35803;53.096;5.844;2022-08-01T00:02:56;3.75;;;3.00;;
49910;SDS011;35803;53.096;5.844;2022-08-01T00:05:22;4.93;;;3.00;;
49910;SDS011;35803;53.096;5.844;2022-08-01T00:07:47;5.70;;;3.15;;
49910;SDS011;35803;53.096;5.844;2022-08-01T00:10:14;4.45;;;3.03;;
49910;SDS011;35803;53.096;5.844;2022-08-01T00:12:41;4.07;;;2.88;;
49910;SDS011;35803;53.096;5.844;2022-08-01T00:15:08;3.88;;;3.28;;
49910;SDS011;35803;53.096;5.844;2022-08-01T00:17:34;3.55;;;3.08;;
49910;SDS011;35803;53.096;5.844;2022-08-01T00:20:00;4.53;;;2.97;;
49910;SDS011;35803;53.096;5.844;2022-08-01T00:22:28;7.93;;;3.30;;
49910;SDS011;35803;53.096;5.844;2022-08-01T00:24:53;3.50;;;2.90;;
49910;SDS011;35803;53.096;5.844;2022-08-01T00:27:22;3.92;;;2.90;;
49910;SDS011;35803;53.096;5.844;2022-08-01T00:29:47;4.13;;;3.08;;
49910;SDS011;35803;53.096;5.844;2022-08-01T00:32:13;5.30;;;3.25;;
49910;SDS011;35803;53.096;5.844;2022-08-01T00:34:38;5.88;;;3.75;;
49910;SDS011;35803;53.096;5.844;2022-08-01T00:37:04;5.35;;;3.58;;
49910;SDS011;35803;53.096;5.844;2022-08-01T00:39:29;8.27;;;4.20;;
49910;SDS011;35803;53.096;5.844;2022-08-01T00:41:57;4.93;;;3.50;;
49910;SDS011;35803;53.096;5.844;2022-08-01T00:44:23;7.20;;;3.80;;
49910;SDS011;35803;53.096;5.844;2022-08-01T00:46:48;10.18;;;4.10;;
49910;SDS011;35803;53.096;5.844;2022-08-01T00:49:14;6.88;;;3.78;;
49910;SDS011;35803;53.096;5.844;2022-08-01T00:51:39;7.60;;;3.70;;
49910;SDS011;35803;53.096;5.844;2022-08-01T00:54:05;6.78;;;4.05;;
49910;SDS011;35803;53.096;5.844;2022-08-01T00:56:30;6.85;;;3.83;;
49910;SDS011;35803;53.096;5.844;2022-08-01T00:58:56;7.03;;;3.92;;
49910;SDS011;35803;53.096;5.844;2022-08-01T01:01:22;8.60;;;3.70;;
49910;SDS011;35803;53.096;5.844;2022-08-01T01:03:52;6.15;;;3.70;;
49910;SDS011;35803;53.096;5.844;2022-08-01T01:12:27;6.57;;;3.40;;
49910;SDS011;35803;53.096;5.844;2022-08-01T01:15:14;3.63;;;2.97;;
49910;SDS011;35803;53.096;5.844;2022-08-01T01:17:42;6.05;;;3.22;;
49910;SDS011;35803;53.096;5.844;2022-08-01T01:20:20;5.05;;;3.45;;
49910;SDS011;35803;53.096;5.844;2022-08-01T01:30:53;4.93;;;2.60;;
49910;SDS011;35803;53.096;5.844;2022-08-01T01:33:20;5.50;;;2.70;;
49910;SDS011;35803;53.096;5.844;2022-08-01T01:35:47;4.68;;;2.60;;
49910;SDS011;35803;53.096;5.844;2022-08-01T01:38:17;3.85;;;2.00;;
49910;SDS011;35803;53.096;5.844;2022-08-01T01:40:45;4.05;;;1.95;;
49910;SDS011;35803;53.096;5.844;2022-08-01T01:43:11;3.38;;;2.28;;
49910;SDS011;35803;53.096;5.844;2022-08-01T01:45:38;3.08;;;1.92;;
49910;SDS011;35803;53.096;5.844;2022-08-01T01:48:04;3.90;;;1.95;;
49910;SDS011;35803;53.096;5.844;2022-08-01T01:50:31;4.03;;;2.47;;
49910;SDS011;35803;53.096;5.844;2022-08-01T01:53:00;3.55;;;2.30;;
49910;SDS011;35803;53.096;5.844;2022-08-01T01:55:26;5.80;;;2.45;;
49910;SDS011;35803;53.096;5.844;2022-08-01T01:57:53;5.10;;;2.33;;
49910;SDS011;35803;53.096;5.844;2022-08-01T02:00:19;3.35;;;2.25;;
49910;SDS011;35803;53.096;5.844;2022-08-01T02:02:44;8.20;;;2.50;;
49910;SDS011;35803;53.096;5.844;2022-08-01T02:05:11;5.50;;;2.10;;
49910;SDS011;35803;53.096;5.844;2022-08-01T02:07:38;5.53;;;2.40;;
49910;SDS011;35803;53.096;5.844;2022-08-01T02:10:05;3.38;;;2.38;;
49910;SDS011;35803;53.096;5.844;2022-08-01T02:12:32;6.03;;;2.25;;
49910;SDS011;35803;53.096;5.844;2022-08-01T02:14:59;6.80;;;2.70;;
49910;SDS011;35803;53.096;5.844;2022-08-01T02:17:25;6.18;;;2.85;;
49910;SDS011;35803;53.096;5.844;2022-08-01T02:19:52;7.32;;;2.38;;
49910;SDS011;35803;53.096;5.844;2022-08-01T02:22:19;5.75;;;2.50;;
49910;SDS011;35803;53.096;5.844;2022-08-01T02:27:33;3.13;;;2.17;;
49910;SDS011;35803;53.096;5.844;2022-08-01T02:30:01;5.80;;;2.67;;
49910;SDS011;35803;53.096;5.844;2022-08-01T02:32:34;6.30;;;2.47;;
49910;SDS011;35803;53.096;5.844;2022-08-01T02:35:03;6.90;;;2.97;;
49910;SDS011;35803;53.096;5.844;2022-08-01T02:37:33;7.47;;;2.75;;
49910;SDS011;35803;53.096;5.844;2022-08-01T02:39:59;4.97;;;2.80;;
49910;SDS011;35803;53.096;5.844;2022-08-01T02:42:26;7.15;;;3.50;;
49910;SDS011;35803;53.096;5.844;2022-08-01T02:44:52;5.38;;;2.75;;
49910;SDS011;35803;53.096;5.844;2022-08-01T02:47:19;5.22;;;2.75;;
49910;SDS011;35803;53.096;5.844;2022-08-01T02:49:46;5.57;;;2.75;;
49910;SDS011;35803;53.096;5.844;2022-08-01T02:52:14;5.65;;;2.70;;
49910;SDS011;35803;53.096;5.844;2022-08-01T02:54:41;4.40;;;2.55;;
49910;SDS011;35803;53.096;5.844;2022-08-01T02:57:09;5.40;;;2.65;;
49910;SDS011;35803;53.096;5.844;2022-08-01T02:59:35;5.40;;;3.05;;
49910;SDS011;35803;53.096;5.844;2022-08-01T03:02:03;7.68;;;2.70;;
49910;SDS011;35803;53.096;5.844;2022-08-01T03:04:30;5.80;;;2.70;;
49910;SDS011;35803;53.096;5.844;2022-08-01T03:06:58;4.38;;;2.67;;
49910;SDS011;35803;53.096;5.844;2022-08-01T03:09:26;6.35;;;3.05;;
49910;SDS011;35803;53.096;5.844;2022-08-01T03:11:52;6.60;;;3.15;;
49910;SDS011;35803;53.096;5.844;2022-08-01T03:14:19;8.85;;;3.50;;
49910;SDS011;35803;53.096;5.844;2022-08-01T03:16:45;6.88;;;2.70;;
49910;SDS011;35803;53.096;5.844;2022-08-01T03:19:12;8.85;;;3.15;;
49910;SDS011;35803;53.096;5.844;2022-08-01T03:21:39;6.57;;;3.05;;
49910;SDS011;35803;53.096;5.844;2022-08-01T03:24:05;6.00;;;2.90;;
49910;SDS011;35803;53.096;5.844;2022-08-01T03:26:33;7.85;;;3.03;;
49910;SDS011;35803;53.096;5.844;2022-08-01T03:29:02;6.60;;;3.25;;
49910;SDS011;35803;53.096;5.844;2022-08-01T03:31:36;4.28;;;2.85;;
49910;SDS011;35803;53.096;5.844;2022-08-01T03:34:03;5.60;;;2.75;;
49910;SDS011;35803;53.096;5.844;2022-08-01T03:36:29;3.95;;;2.33;;
49910;SDS011;35803;53.096;5.844;2022-08-01T03:38:58;5.65;;;2.42;;
49910;SDS011;35803;53.096;5.844;2022-08-01T03:41:26;7.72;;;3.00;;
49910;SDS011;35803;53.096;5.844;2022-08-01T03:43:57;6.55;;;3.13;;
49910;SDS011;35803;53.096;5.844;2022-08-01T03:46:46;7.30;;;2.67;;
49910;SDS011;35803;53.096;5.844;2022-08-01T03:49:13;6.00;;;2.65;;
49910;SDS011;35803;53.096;5.844;2022-08-01T03:51:40;8.48;;;3.20;;
49910;SDS011;35803;53.096;5.844;2022-08-01T03:54:05;7.60;;;3.25;;
49910;SDS011;35803;53.096;5.844;2022-08-01T03:56:32;6.70;;;2.63;;
49910;SDS011;35803;53.096;5.844;2022-08-01T03:58:59;8.43;;;3.03;;
49910;SDS011;35803;53.096;5.844;2022-08-01T04:01:25;5.53;;;2.40;;
49910;SDS011;35803;53.096;5.844;2022-08-01T04:03:51;4.47;;;2.50;;
49910;SDS011;35803;53.096;5.844;2022-08-01T04:06:16;5.30;;;2.40;;
49910;SDS011;35803;53.096;5.844;2022-08-01T04:08:42;9.90;;;2.42;;
49910;SDS011;35803;53.096;5.844;2022-08-01T04:11:08;6.18;;;2.50;;
49910;SDS011;35803;53.096;5.844;2022-08-01T04:13:34;7.68;;;2.20;;
49910;SDS011;35803;53.096;5.844;2022-08-01T04:16:00;5.30;;;2.90;;
49910;SDS011;35803;53.096;5.844;2022-08-01T04:18:25;5.25;;;2.05;;
49910;SDS011;35803;53.096;5.844;2022-08-01T04:20:51;3.72;;;1.98;;
49910;SDS011;35803;53.096;5.844;2022-08-01T04:23:17;8.20;;;1.83;;
49910;SDS011;35803;53.096;5.844;2022-08-01T04:25:46;5.30;;;1.90;;
49910;SDS011;35803;53.096;5.844;2022-08-01T04:28:13;4.13;;;2.10;;
49910;SDS011;35803;53.096;5.844;2022-08-01T04:30:41;4.65;;;1.88;;
49910;SDS011;35803;53.096;5.844;2022-08-01T04:33:10;5.32;;;1.92;;
49910;SDS011;35803;53.096;5.844;2022-08-01T04:35:37;5.82;;;1.80;;
49910;SDS011;35803;53.096;5.844;2022-08-01T04:38:03;6.13;;;2.08;;
49910;SDS011;35803;53.096;5.844;2022-08-01T04:40:29;6.65;;;1.60;;
49910;SDS011;35803;53.096;5.844;2022-08-01T04:42:55;4.43;;;1.80;;
49910;SDS011;35803;53.096;5.844;2022-08-01T04:45:21;7.55;;;1.70;;
49910;SDS011;35803;53.096;5.844;2022-08-01T04:47:46;5.28;;;1.67;;
49910;SDS011;35803;53.096;5.844;2022-08-01T04:50:12;3.40;;;1.50;;
49910;SDS011;35803;53.096;5.844;2022-08-01T04:52:38;6.97;;;1.83;;
49910;SDS011;35803;53.096;5.844;2022-08-01T04:55:07;5.00;;;1.63;;
49910;SDS011;35803;53.096;5.844;2022-08-01T04:57:34;5.72;;;1.50;;
49910;SDS011;35803;53.096;5.844;2022-08-01T05:00:03;6.43;;;1.85;;
49910;SDS011;35803;53.096;5.844;2022-08-01T05:02:29;3.83;;;1.42;;
49910;SDS011;35803;53.096;5.844;2022-08-01T05:04:55;6.45;;;1.83;;
49910;SDS011;35803;53.096;5.844;2022-08-01T05:07:20;5.45;;;1.90;;
49910;SDS011;35803;53.096;5.844;2022-08-01T05:09:46;7.97;;;1.73;;
49910;SDS011;35803;53.096;5.844;2022-08-01T05:12:12;4.68;;;1.70;;
49910;SDS011;35803;53.096;5.844;2022-08-01T05:14:37;8.55;;;1.95;;
49910;SDS011;35803;53.096;5.844;2022-08-01T05:17:04;5.32;;;1.85;;
49910;SDS011;35803;53.096;5.844;2022-08-01T05:19:31;6.55;;;1.80;;
49910;SDS011;35803;53.096;5.844;2022-08-01T05:22:07;6.95;;;1.90;;
49910;SDS011;35803;53.096;5.844;2022-08-01T05:24:33;8.18;;;2.47;;
49910;SDS011;35803;53.096;5.844;2022-08-01T05:27:00;6.70;;;1.85;;
49910;SDS011;35803;53.096;5.844;2022-08-01T05:29:25;5.20;;;1.70;;
49910;SDS011;35803;53.096;5.844;2022-08-01T05:31:51;6.25;;;1.92;;
49910;SDS011;35803;53.096;5.844;2022-08-01T05:34:17;5.88;;;1.90;;
49910;SDS011;35803;53.096;5.844;2022-08-01T05:37:01;4.50;;;1.77;;
49910;SDS011;35803;53.096;5.844;2022-08-01T05:39:27;4.57;;;1.45;;
49910;SDS011;35803;53.096;5.844;2022-08-01T05:41:53;6.25;;;1.83;;
49910;SDS011;35803;53.096;5.844;2022-08-01T05:44:18;6.97;;;1.67;;
49910;SDS011;35803;53.096;5.844;2022-08-01T05:46:44;8.10;;;1.73;;
49910;SDS011;35803;53.096;5.844;2022-08-01T05:49:09;4.88;;;1.70;;
49910;SDS011;35803;53.096;5.844;2022-08-01T05:51:35;9.55;;;2.25;;
49910;SDS011;35803;53.096;5.844;2022-08-01T05:54:00;7.65;;;2.25;;
49910;SDS011;35803;53.096;5.844;2022-08-01T05:56:26;7.38;;;2.20;;
49910;SDS011;35803;53.096;5.844;2022-08-01T05:58:52;5.10;;;1.90;;
49910;SDS011;35803;53.096;5.844;2022-08-01T06:01:17;8.90;;;1.98;;
49910;SDS011;35803;53.096;5.844;2022-08-01T06:03:43;8.00;;;2.03;;
49910;SDS011;35803;53.096;5.844;2022-08-01T06:06:09;4.63;;;1.65;;
49910;SDS011;35803;53.096;5.844;2022-08-01T06:08:35;4.68;;;1.50;;
49910;SDS011;35803;53.096;5.844;2022-08-01T06:11:01;3.75;;;2.03;;
49910;SDS011;35803;53.096;5.844;2022-08-01T06:13:26;7.22;;;2.35;;
49910;SDS011;35803;53.096;5.844;2022-08-01T06:15:52;6.13;;;2.25;;
49910;SDS011;35803;53.096;5.844;2022-08-01T06:18:17;7.10;;;1.92;;
49910;SDS011;35803;53.096;5.844;2022-08-01T06:20:43;4.45;;;1.95;;
49910;SDS011;35803;53.096;5.844;2022-08-01T06:23:09;5.63;;;1.80;;
49910;SDS011;35803;53.096;5.844;2022-08-01T06:25:35;5.13;;;1.50;;
49910;SDS011;35803;53.096;5.844;2022-08-01T06:28:00;5.85;;;1.73;;
49910;SDS011;35803;53.096;5.844;2022-08-01T06:30:26;5.78;;;1.30;;
49910;SDS011;35803;53.096;5.844;2022-08-01T06:32:52;6.30;;;1.90;;
49910;SDS011;35803;53.096;5.844;2022-08-01T06:35:17;9.15;;;2.05;;
49910;SDS011;35803;53.096;5.844;2022-08-01T06:37:43;6.95;;;1.83;;
49910;SDS011;35803;53.096;5.844;2022-08-01T06:40:10;4.57;;;1.30;;
49910;SDS011;35803;53.096;5.844;2022-08-01T06:42:36;3.67;;;1.80;;
49910;SDS011;35803;53.096;5.844;2022-08-01T06:45:05;4.15;;;1.40;;
49910;SDS011;35803;53.096;5.844;2022-08-01T06:47:32;6.55;;;1.58;;
49910;SDS011;35803;53.096;5.844;2022-08-01T06:49:58;4.10;;;1.30;;
49910;SDS011;35803;53.096;5.844;2022-08-01T06:52:23;4.03;;;1.58;;
49910;SDS011;35803;53.096;5.844;2022-08-01T06:54:49;4.72;;;1.50;;
49910;SDS011;35803;53.096;5.844;2022-08-01T06:57:15;6.72;;;1.33;;
49910;SDS011;35803;53.096;5.844;2022-08-01T06:59:40;6.68;;;1.90;;
49910;SDS011;35803;53.096;5.844;2022-08-01T07:02:06;5.35;;;1.80;;
49910;SDS011;35803;53.096;5.844;2022-08-01T07:04:32;3.55;;;1.20;;
49910;SDS011;35803;53.096;5.844;2022-08-01T07:06:58;4.90;;;1.40;;
49910;SDS011;35803;53.096;5.844;2022-08-01T07:09:24;7.55;;;1.73;;
49910;SDS011;35803;53.096;5.844;2022-08-01T07:11:50;5.45;;;1.40;;
49910;SDS011;35803;53.096;5.844;2022-08-01T07:14:17;2.67;;;1.30;;
49910;SDS011;35803;53.096;5.844;2022-08-01T07:16:43;4.45;;;1.25;;
49910;SDS011;35803;53.096;5.844;2022-08-01T07:19:09;3.95;;;1.63;;
49910;SDS011;35803;53.096;5.844;2022-08-01T07:21:34;2.38;;;1.40;;
49910;SDS011;35803;53.096;5.844;2022-08-01T07:24:00;2.83;;;1.10;;
49910;SDS011;35803;53.096;5.844;2022-08-01T07:26:25;2.50;;;1.10;;
49910;SDS011;35803;53.096;5.844;2022-08-01T07:28:52;2.83;;;1.13;;
49910;SDS011;35803;53.096;5.844;2022-08-01T07:31:18;2.95;;;1.20;;
49910;SDS011;35803;53.096;5.844;2022-08-01T07:33:44;2.17;;;1.15;;
49910;SDS011;35803;53.096;5.844;2022-08-01T07:36:09;2.40;;;1.30;;
49910;SDS011;35803;53.096;5.844;2022-08-01T07:38:35;4.55;;;1.05;;
49910;SDS011;35803;53.096;5.844;2022-08-01T07:41:00;4.60;;;1.30;;
49910;SDS011;35803;53.096;5.844;2022-08-01T07:43:26;2.40;;;1.08;;
49910;SDS011;35803;53.096;5.844;2022-08-01T07:45:51;5.78;;;1.20;;
49910;SDS011;35803;53.096;5.844;2022-08-01T07:48:16;1.50;;;0.95;;
49910;SDS011;35803;53.096;5.844;2022-08-01T07:50:42;2.50;;;0.85;;
49910;SDS011;35803;53.096;5.844;2022-08-01T07:53:07;6.32;;;1.30;;
49910;SDS011;35803;53.096;5.844;2022-08-01T07:55:35;3.65;;;1.00;;
49910;SDS011;35803;53.096;5.844;2022-08-01T07:58:01;4.70;;;0.93;;
49910;SDS011;35803;53.096;5.844;2022-08-01T08:00:26;6.07;;;1.02;;
49910;SDS011;35803;53.096;5.844;2022-08-01T08:02:56;3.80;;;0.90;;
49910;SDS011;35803;53.096;5.844;2022-08-01T08:05:24;3.05;;;1.02;;
49910;SDS011;35803;53.096;5.844;2022-08-01T08:07:50;2.58;;;0.90;;
49910;SDS011;35803;53.096;5.844;2022-08-01T08:10:16;2.88;;;0.90;;
49910;SDS011;35803;53.096;5.844;2022-08-01T08:12:41;3.08;;;0.90;;
49910;SDS011;35803;53.096;5.844;2022-08-01T08:15:07;2.53;;;0.93;;
49910;SDS011;35803;53.096;5.844;2022-08-01T08:17:33;3.95;;;1.05;;
49910;SDS011;35803;53.096;5.844;2022-08-01T08:19:58;2.90;;;0.80;;
49910;SDS011;35803;53.096;5.844;2022-08-01T08:22:24;3.70;;;1.30;;
49910;SDS011;35803;53.096;5.844;2022-08-01T08:24:49;1.60;;;0.80;;
49910;SDS011;35803;53.096;5.844;2022-08-01T08:27:15;3.30;;;1.23;;
49910;SDS011;35803;53.096;5.844;2022-08-01T08:29:40;1.48;;;0.77;;
49910;SDS011;35803;53.096;5.844;2022-08-01T08:32:07;4.65;;;1.10;;
49910;SDS011;35803;53.096;5.844;2022-08-01T08:34:32;1.75;;;0.95;;
49910;SDS011;35803;53.096;5.844;2022-08-01T08:36:59;3.67;;;1.00;;
49910;SDS011;35803;53.096;5.844;2022-08-01T08:39:25;4.97;;;1.00;;
49910;SDS011;35803;53.096;5.844;2022-08-01T08:41:51;3.78;;;1.20;;
49910;SDS011;35803;53.096;5.844;2022-08-01T08:44:18;1.77;;;1.02;;
49910;SDS011;35803;53.096;5.844;2022-08-01T08:46:49;4.75;;;1.20;;
49910;SDS011;35803;53.096;5.844;2022-08-01T08:49:26;1.30;;;0.82;;
49910;SDS011;35803;53.096;5.844;2022-08-01T08:51:53;5.45;;;1.20;;
49910;SDS011;35803;53.096;5.844;2022-08-01T08:54:20;3.85;;;0.95;;
49910;SDS011;35803;53.096;5.844;2022-08-01T08:56:47;2.55;;;0.88;;
49910;SDS011;35803;53.096;5.844;2022-08-01T08:59:13;3.15;;;0.80;;
49910;SDS011;35803;53.096;5.844;2022-08-01T09:01:39;1.05;;;0.65;;
49910;SDS011;35803;53.096;5.844;2022-08-01T09:04:05;2.22;;;0.80;;
49910;SDS011;35803;53.096;5.844;2022-08-01T09:06:32;1.70;;;0.70;;
49910;SDS011;35803;53.096;5.844;2022-08-01T09:08:57;1.13;;;0.80;;
49910;SDS011;35803;53.096;5.844;2022-08-01T09:11:24;1.63;;;0.70;;
49910;SDS011;35803;53.096;5.844;2022-08-01T09:16:43;2.50;;;1.00;;
49910;SDS011;35803;53.096;5.844;2022-08-01T09:19:10;1.73;;;1.08;;
49910;SDS011;35803;53.096;5.844;2022-08-01T09:21:55;2.60;;;0.68;;
49910;SDS011;35803;53.096;5.844;2022-08-01T09:24:23;4.55;;;1.02;;
49910;SDS011;35803;53.096;5.844;2022-08-01T09:26:50;3.10;;;0.57;;
49910;SDS011;35803;53.096;5.844;2022-08-01T09:29:20;3.15;;;0.70;;
49910;SDS011;35803;53.096;5.844;2022-08-01T09:31:47;3.63;;;1.20;;
49910;SDS011;35803;53.096;5.844;2022-08-01T09:34:15;6.30;;;0.80;;
49910;SDS011;35803;53.096;5.844;2022-08-01T09:39:20;0.57;;;0.57;;
49910;SDS011;35803;53.096;5.844;2022-08-01T09:41:50;2.85;;;0.65;;
49910;SDS011;35803;53.096;5.844;2022-08-01T09:44:41;1.98;;;0.80;;
49910;SDS011;35803;53.096;5.844;2022-08-01T09:47:09;3.58;;;0.82;;
49910;SDS011;35803;53.096;5.844;2022-08-01T09:49:36;3.00;;;0.80;;
49910;SDS011;35803;53.096;5.844;2022-08-01T09:52:36;2.42;;;0.82;;
49910;SDS011;35803;53.096;5.844;2022-08-01T09:54:58;1.13;;;0.70;;
49910;SDS011;35803;53.096;5.844;2022-08-01T09:57:28;3.10;;;0.75;;
49910;SDS011;35803;53.096;5.844;2022-08-01T09:59:55;2.17;;;0.80;;
49910;SDS011;35803;53.096;5.844;2022-08-01T10:02:34;1.90;;;0.73;;
49910;SDS011;35803;53.096;5.844;2022-08-01T10:05:02;2.05;;;0.60;;
49910;SDS011;35803;53.096;5.844;2022-08-01T10:07:29;1.75;;;0.70;;
49910;SDS011;35803;53.096;5.844;2022-08-01T10:09:55;3.22;;;0.60;;
49910;SDS011;35803;53.096;5.844;2022-08-01T10:12:21;2.88;;;0.60;;
49910;SDS011;35803;53.096;5.844;2022-08-01T10:14:49;4.45;;;0.90;;
49910;SDS011;35803;53.096;5.844;2022-08-01T10:17:24;1.75;;;0.90;;
49910;SDS011;35803;53.096;5.844;2022-08-01T10:19:50;0.50;;;0.50;;
49910;SDS011;35803;53.096;5.844;2022-08-01T10:22:19;4.78;;;0.70;;
49910;SDS011;35803;53.096;5.844;2022-08-01T10:24:48;2.28;;;1.15;;
49910;SDS011;35803;53.096;5.844;2022-08-01T10:27:18;1.92;;;0.70;;
49910;SDS011;35803;53.096;5.844;2022-08-01T10:32:20;1.02;;;0.80;;
49910;SDS011;35803;53.096;5.844;2022-08-01T10:34:50;3.47;;;1.00;;
49910;SDS011;35803;53.096;5.844;2022-08-01T10:37:25;3.65;;;0.63;;
49910;SDS011;35803;53.096;5.844;2022-08-01T10:39:51;0.80;;;0.73;;
49910;SDS011;35803;53.096;5.844;2022-08-01T10:42:17;3.55;;;0.70;;
49910;SDS011;35803;53.096;5.844;2022-08-01T10:44:42;0.93;;;0.60;;
49910;SDS011;35803;53.096;5.844;2022-08-01T10:47:13;2.03;;;0.70;;
49910;SDS011;35803;53.096;5.844;2022-08-01T10:52:32;2.45;;;0.70;;
49910;SDS011;35803;53.096;5.844;2022-08-01T10:55:01;2.05;;;1.00;;
49910;SDS011;35803;53.096;5.844;2022-08-01T10:57:46;1.52;;;0.70;;
49910;SDS011;35803;53.096;5.844;2022-08-01T11:00:22;5.47;;;0.98;;
49910;SDS011;35803;53.096;5.844;2022-08-01T11:03:01;1.67;;;0.65;;
49910;SDS011;35803;53.096;5.844;2022-08-01T11:05:34;1.60;;;0.65;;
49910;SDS011;35803;53.096;5.844;2022-08-01T11:08:06;2.00;;;0.82;;
49910;SDS011;35803;53.096;5.844;2022-08-01T11:10:46;2.00;;;0.70;;
49910;SDS011;35803;53.096;5.844;2022-08-01T11:13:12;4.43;;;0.70;;
49910;SDS011;35803;53.096;5.844;2022-08-01T11:15:39;6.20;;;1.00;;
49910;SDS011;35803;53.096;5.844;2022-08-01T11:20:57;2.03;;;0.82;;
49910;SDS011;35803;53.096;5.844;2022-08-01T11:23:24;3.63;;;0.90;;
49910;SDS011;35803;53.096;5.844;2022-08-01T11:28:19;2.28;;;0.60;;
49910;SDS011;35803;53.096;5.844;2022-08-01T11:30:47;0.73;;;0.65;;
49910;SDS011;35803;53.096;5.844;2022-08-01T11:38:35;3.22;;;0.70;;
49910;SDS011;35803;53.096;5.844;2022-08-01T11:43:54;3.80;;;0.68;;
49910;SDS011;35803;53.096;5.844;2022-08-01T11:46:44;2.53;;;0.60;;
49910;SDS011;35803;53.096;5.844;2022-08-01T11:57:01;0.60;;;0.60;;
49910;SDS011;35803;53.096;5.844;2022-08-01T11:59:48;3.30;;;1.17;;
49910;SDS011;35803;53.096;5.844;2022-08-01T12:02:28;0.98;;;0.70;;
49910;SDS011;35803;53.096;5.844;2022-08-01T12:07:22;1.45;;;0.60;;
49910;SDS011;35803;53.096;5.844;2022-08-01T12:09:56;2.83;;;1.15;;
49910;SDS011;35803;53.096;5.844;2022-08-01T12:12:26;2.08;;;0.73;;
49910;SDS011;35803;53.096;5.844;2022-08-01T12:14:55;1.17;;;0.65;;
49910;SDS011;35803;53.096;5.844;2022-08-01T12:17:29;3.58;;;0.90;;
49910;SDS011;35803;53.096;5.844;2022-08-01T12:19:56;1.85;;;0.65;;
49910;SDS011;35803;53.096;5.844;2022-08-01T12:22:23;1.73;;;0.60;;
49910;SDS011;35803;53.096;5.844;2022-08-01T12:24:49;1.25;;;0.63;;
49910;SDS011;35803;53.096;5.844;2022-08-01T12:27:25;1.95;;;0.43;;
49910;SDS011;35803;53.096;5.844;2022-08-01T12:29:53;3.88;;;0.88;;
49910;SDS011;35803;53.096;5.844;2022-08-01T12:32:27;3.13;;;0.80;;
49910;SDS011;35803;53.096;5.844;2022-08-01T12:34:54;1.40;;;0.80;;
49910;SDS011;35803;53.096;5.844;2022-08-01T12:37:21;1.13;;;0.68;;
49910;SDS011;35803;53.096;5.844;2022-08-01T12:39:47;0.55;;;0.45;;
49910;SDS011;35803;53.096;5.844;2022-08-01T12:42:13;2.38;;;0.77;;
49910;SDS011;35803;53.096;5.844;2022-08-01T12:44:39;1.77;;;0.57;;
49910;SDS011;35803;53.096;5.844;2022-08-01T12:47:07;1.55;;;0.52;;
49910;SDS011;35803;53.096;5.844;2022-08-01T12:49:36;1.70;;;0.68;;
49910;SDS011;35803;53.096;5.844;2022-08-01T12:52:02;1.15;;;0.80;;
49910;SDS011;35803;53.096;5.844;2022-08-01T12:54:28;1.20;;;0.70;;
49910;SDS011;35803;53.096;5.844;2022-08-01T12:56:54;0.85;;;0.52;;
49910;SDS011;35803;53.096;5.844;2022-08-01T12:59:24;2.08;;;0.75;;
49910;SDS011;35803;53.096;5.844;2022-08-01T13:01:54;1.13;;;0.55;;
49910;SDS011;35803;53.096;5.844;2022-08-01T13:04:20;2.47;;;0.85;;
49910;SDS011;35803;53.096;5.844;2022-08-01T13:06:47;2.72;;;0.90;;
49910;SDS011;35803;53.096;5.844;2022-08-01T13:09:14;1.23;;;0.68;;
49910;SDS011;35803;53.096;5.844;2022-08-01T13:11:40;2.70;;;0.70;;
49910;SDS011;35803;53.096;5.844;2022-08-01T13:14:06;4.05;;;0.75;;
49910;SDS011;35803;53.096;5.844;2022-08-01T13:16:32;3.05;;;0.70;;
49910;SDS011;35803;53.096;5.844;2022-08-01T13:18:58;0.88;;;0.60;;
49910;SDS011;35803;53.096;5.844;2022-08-01T13:24:03;2.40;;;0.88;;
49910;SDS011;35803;53.096;5.844;2022-08-01T13:29:12;2.10;;;0.93;;
49910;SDS011;35803;53.096;5.844;2022-08-01T13:31:39;0.98;;;0.63;;
49910;SDS011;35803;53.096;5.844;2022-08-01T13:34:05;2.28;;;0.68;;
49910;SDS011;35803;53.096;5.844;2022-08-01T13:36:31;1.25;;;0.50;;
49910;SDS011;35803;53.096;5.844;2022-08-01T13:38:57;1.67;;;0.90;;
49910;SDS011;35803;53.096;5.844;2022-08-01T13:41:42;0.90;;;0.50;;
49910;SDS011;35803;53.096;5.844;2022-08-01T13:44:08;2.80;;;0.70;;
49910;SDS011;35803;53.096;5.844;2022-08-01T13:46:36;0.57;;;0.57;;
49910;SDS011;35803;53.096;5.844;2022-08-01T13:49:02;1.90;;;0.50;;
49910;SDS011;35803;53.096;5.844;2022-08-01T13:51:28;0.75;;;0.60;;
49910;SDS011;35803;53.096;5.844;2022-08-01T13:53:54;3.33;;;0.60;;
49910;SDS011;35803;53.096;5.844;2022-08-01T13:56:19;1.55;;;0.70;;
49910;SDS011;35803;53.096;5.844;2022-08-01T13:58:45;3.28;;;0.68;;
49910;SDS011;35803;53.096;5.844;2022-08-01T14:01:11;1.20;;;0.70;;
49910;SDS011;35803;53.096;5.844;2022-08-01T14:03:37;0.50;;;0.50;;
49910;SDS011;35803;53.096;5.844;2022-08-01T14:06:05;1.23;;;0.47;;
49910;SDS011;35803;53.096;5.844;2022-08-01T14:08:31;2.15;;;0.60;;
49910;SDS011;35803;53.096;5.844;2022-08-01T14:10:56;1.48;;;0.70;;
49910;SDS011;35803;53.096;5.844;2022-08-01T14:13:27;1.10;;;0.60;;
49910;SDS011;35803;53.096;5.844;2022-08-01T14:15:53;2.42;;;0.80;;
49910;SDS011;35803;53.096;5.844;2022-08-01T14:18:19;1.73;;;0.50;;
49910;SDS011;35803;53.096;5.844;2022-08-01T14:20:44;1.85;;;0.63;;
49910;SDS011;35803;53.096;5.844;2022-08-01T14:23:10;2.22;;;0.70;;
49910;SDS011;35803;53.096;5.844;2022-08-01T14:25:39;2.78;;;0.88;;
49910;SDS011;35803;53.096;5.844;2022-08-01T14:28:06;1.35;;;0.82;;
49910;SDS011;35803;53.096;5.844;2022-08-01T14:30:32;0.82;;;0.60;;
49910;SDS011;35803;53.096;5.844;2022-08-01T14:32:58;3.78;;;1.13;;
49910;SDS011;35803;53.096;5.844;2022-08-01T14:35:24;1.63;;;0.52;;
49910;SDS011;35803;53.096;5.844;2022-08-01T14:37:50;2.53;;;0.90;;
49910;SDS011;35803;53.096;5.844;2022-08-01T14:40:16;1.33;;;0.80;;
49910;SDS011;35803;53.096;5.844;2022-08-01T14:42:42;0.57;;;0.57;;
49910;SDS011;35803;53.096;5.844;2022-08-01T14:45:10;1.40;;;0.60;;
49910;SDS011;35803;53.096;5.844;2022-08-01T14:47:37;3.35;;;0.80;;
49910;SDS011;35803;53.096;5.844;2022-08-01T14:50:06;1.48;;;0.90;;
49910;SDS011;35803;53.096;5.844;2022-08-01T14:52:34;3.75;;;0.90;;
49910;SDS011;35803;53.096;5.844;2022-08-01T14:55:00;1.50;;;0.68;;
49910;SDS011;35803;53.096;5.844;2022-08-01T14:57:38;1.65;;;0.63;;
49910;SDS011;35803;53.096;5.844;2022-08-01T15:00:07;1.23;;;0.60;;
49910;SDS011;35803;53.096;5.844;2022-08-01T15:02:48;1.60;;;0.63;;
49910;SDS011;35803;53.096;5.844;2022-08-01T15:05:13;1.08;;;0.70;;
49910;SDS011;35803;53.096;5.844;2022-08-01T15:07:39;2.85;;;0.80;;
49910;SDS011;35803;53.096;5.844;2022-08-01T15:10:05;1.35;;;0.68;;
49910;SDS011;35803;53.096;5.844;2022-08-01T15:12:31;1.75;;;0.75;;
49910;SDS011;35803;53.096;5.844;2022-08-01T15:14:57;1.25;;;0.50;;
49910;SDS011;35803;53.096;5.844;2022-08-01T15:17:23;1.38;;;0.60;;
49910;SDS011;35803;53.096;5.844;2022-08-01T15:19:58;0.90;;;0.60;;
49910;SDS011;35803;53.096;5.844;2022-08-01T15:22:27;1.42;;;0.60;;
49910;SDS011;35803;53.096;5.844;2022-08-01T15:24:53;0.63;;;0.60;;
49910;SDS011;35803;53.096;5.844;2022-08-01T15:27:20;2.45;;;0.73;;
49910;SDS011;35803;53.096;5.844;2022-08-01T15:29:49;1.48;;;0.60;;
49910;SDS011;35803;53.096;5.844;2022-08-01T15:32:15;1.70;;;0.60;;
49910;SDS011;35803;53.096;5.844;2022-08-01T15:34:41;2.83;;;0.70;;
49910;SDS011;35803;53.096;5.844;2022-08-01T15:37:07;1.92;;;0.85;;
49910;SDS011;35803;53.096;5.844;2022-08-01T15:39:34;1.02;;;0.60;;
49910;SDS011;35803;53.096;5.844;2022-08-01T15:42:02;2.00;;;0.60;;
49910;SDS011;35803;53.096;5.844;2022-08-01T15:44:30;2.53;;;0.82;;
49910;SDS011;35803;53.096;5.844;2022-08-01T15:46:55;2.85;;;0.57;;